Las horas y fechas están en horario UTC.
Sumar 1 hora en el horario de invierno y 2 horas en el de verano

Informes METAR cercanos

 

LEZL - Sevilla (civ/Mil, Spain
Distance from station: NNE 24km
Actualización: 11/04/2021 22:30
Despejado
Despejado
 Viento del SSO
Viento: SSO 11 km/h
Temperatura: 17°C
Rocío: 13°C
Humedad: 77%
Barómetro: 1018 hPa
Resumen: Despejado
Visibility: greater than 10 km
2021/04/11 20:30 LEZL 112030Z 21006KT 180V250 CAVOK 17/13 Q1018 NOSIG
LEMO - Moron (sp-Usafb), Spain
Distance from station: E 38km
Actualización: 11/04/2021 22:30
Despejado
Despejado
 Viento del SO
Viento: SO 11 km/h
Temperatura: 15°C
Rocío: 14°C
Humedad: 94%
Barómetro: 1018 hPa
Resumen: Despejado
Visibility: greater than 10 km
2021/04/11 20:30 LEMO 112030Z 23006KT CAVOK 15/14 Q1018 NOSIG
LEJR - Jerez (civ/Mil), Spain
Distance from station: S 53km
Actualización: 11/04/2021 22:30
Few Clouds
Few Clouds
 Viento del SO
Viento: SO 7 km/h
Temperatura: 16°C
Rocío: 14°C
Humedad: 88%
Barómetro: 1018 hPa
Clouds: Few Clouds
Visibility: 10 km
Cloud details: Few Clouds 914 m
2021/04/11 20:30 LEJR 112030Z 23004KT 9999 FEW030 16/14 Q1018
 
LERT - Rota Naval Stati, Spain
Distance from station: SSO 71km
Actualización: 11/04/2021 22:30
Few Clouds
Few Clouds
 Viento del OSO
Viento: OSO 11 km/h
Temperatura: 16°C
Rocío: 14°C
Humedad: 88%
Barómetro: 1018 hPa
Clouds: Few Clouds
Visibility: 10 km
Cloud details: Few Clouds 366 m
2021/04/11 20:30 LERT 112030Z 25006KT 9999 FEW012 16/14 Q1018 NOSIG
LEBA - Cordoba Airport, Spain
Distance from station: ENE 128km
Actualización: 11/04/2021 22:30
Despejado
Despejado
 Viento del OSO
Viento: OSO 9 km/h
Temperatura: 17°C
Rocío: 12°C
Humedad: 73%
Barómetro: 1017 hPa
Resumen: Despejado
Visibility: greater than 10 km
2021/04/11 20:30 LEBA 112030Z AUTO 25005KT 220V280 CAVOK 17/12 Q1017
LXGB - Gibraltar (civ/M, Gibraltar
Distance from station: SSE 137km
Actualización: 11/04/2021 21:50
Despejado
Despejado
 Viento del O
Viento: O 19 km/h
Temperatura: 18°C
Rocío: 13°C
Humedad: 73%
Barómetro: 1018 hPa
Clouds: Despejado
Visibility: 10 km
2021/04/11 19:50 LXGB 111950Z AUTO 26010KT 9999 NCD 18/13 Q1018
 
LEMG - Malaga (civ/Mil), Spain
Distance from station: ESE 150km
Actualización: 11/04/2021 22:30
Few Clouds
Few Clouds
 Viento del O
Viento: O 13 km/h
Temperatura: 21°C
Rocío: 11°C
Humedad: 53%
Barómetro: 1017 hPa
Clouds: Few Clouds
Visibility: 10 km
Cloud details: Few Clouds 2134 m
2021/04/11 20:30 LEMG 112030Z 26007KT 9999 FEW070 21/11 Q1017 NOSIG
GMTT - Tangier/Boukhalf, Morocco
Distance from station: S 169km
Actualización: 11/04/2021 22:30
Few Clouds
Few Clouds
 Viento del varies
Viento: varies 4 km/h
Temperatura: 17°C
Rocío: 12°C
Humedad: 73%
Barómetro: 1018 hPa
Clouds: Few Clouds
Visibility: 8 km
Cloud details: Few Clouds 792 m
2021/04/11 20:30 GMTT 112030Z VRB02KT 8000 FEW026 17/12 Q1018 NOSIG
LPFR - Faro, Portugal
Distance from station: O 172km
Actualización: 11/04/2021 22:30
Despejado
Despejado
 Viento del NNO
Viento: NNO 17 km/h
Temperatura: 17°C
Rocío: 12°C
Humedad: 73%
Barómetro: 1017 hPa
Resumen: Despejado
Visibility: greater than 10 km
2021/04/11 20:30 LPFR 112030Z 33009KT CAVOK 17/12 Q1017
 
LPBJ - Beja (por/Ger-Af, Portugal
Distance from station: ONO 192km
Actualización: 11/04/2021 22:00
Few Clouds
Few Clouds
 Viento del ONO
Viento: ONO 17 km/h
Temperatura: 15°C
Rocío: 10°C
Humedad: 72%
Barómetro: 1018 hPa
Clouds: Few Clouds
Visibility: 10 km
Cloud details: Few Clouds 1219 m
2021/04/11 20:00 LPBJ 112000Z 29009KT 9999 FEW040 15/10 Q1018
LEBZ - Talavera Ab/Bada, Spain
Distance from station: NNO 194km
Actualización: 11/04/2021 21:00
NOT Current
Despejado
Despejado
 Viento del O
Viento: O 13 km/h
Temperatura: 17°C
Rocío: 12°C
Humedad: 73%
Barómetro: 1016 hPa
Resumen: Despejado
Visibility: greater than 10 km
2021/04/11 19:00 LEBZ 111900Z 28007KT CAVOK 17/12 Q1016
LEMD - Madrid/Barajas, Spain
Distance from station: NE 415km
Actualización: 11/04/2021 22:30
Despejado
Despejado
 Viento del ENE
Viento: ENE 11 km/h
Temperatura: 10°C
Wind Chill: 8°C
Rocío: 6°C
Humedad: 76%
Barómetro: 1019 hPa
Resumen: Despejado
Visibility: greater than 10 km
2021/04/11 20:30 LEMD 112030Z 06006KT 350V120 CAVOK 10/06 Q1019 R88/19//95 NOSIG